sensor_id;sensor_type;location;lat;lon;timestamp;pressure;altitude;pressure_sealevel;temperature;humidity
75051;BME280;63628;47.656;11.310;2022-10-22T00:01:37;94555.34;;;15.72;75.87
75051;BME280;63628;47.656;11.310;2022-10-22T00:04:04;94561.47;;;15.72;75.60
75051;BME280;63628;47.656;11.310;2022-10-22T00:06:31;94568.16;;;15.75;75.68
75051;BME280;63628;47.656;11.310;2022-10-22T00:08:58;94568.97;;;15.70;75.60
75051;BME280;63628;47.656;11.310;2022-10-22T00:11:25;94584.97;;;15.70;75.73
75051;BME280;63628;47.656;11.310;2022-10-22T00:13:51;94577.75;;;15.76;75.32
75051;BME280;63628;47.656;11.310;2022-10-22T00:16:18;94574.56;;;15.69;75.79
75051;BME280;63628;47.656;11.310;2022-10-22T00:18:44;94586.31;;;15.68;75.81
75051;BME280;63628;47.656;11.310;2022-10-22T00:21:11;94583.38;;;15.69;76.24
75051;BME280;63628;47.656;11.310;2022-10-22T00:23:41;94588.69;;;15.69;75.67
75051;BME280;63628;47.656;11.310;2022-10-22T00:26:09;94588.16;;;15.72;75.45
75051;BME280;63628;47.656;11.310;2022-10-22T00:28:35;94584.97;;;15.65;75.93
75051;BME280;63628;47.656;11.310;2022-10-22T00:31:02;94598.31;;;15.75;75.69
75051;BME280;63628;47.656;11.310;2022-10-22T00:33:29;94600.94;;;15.09;78.15
75051;BME280;63628;47.656;11.310;2022-10-22T00:35:56;94601.19;;;15.38;77.06
75051;BME280;63628;47.656;11.310;2022-10-22T00:38:23;94607.13;;;15.61;76.21
75051;BME280;63628;47.656;11.310;2022-10-22T00:40:49;94618.84;;;15.65;76.27
75051;BME280;63628;47.656;11.310;2022-10-22T00:43:18;94615.66;;;15.63;76.18
75051;BME280;63628;47.656;11.310;2022-10-22T00:45:45;94613.53;;;15.65;75.81
75051;BME280;63628;47.656;11.310;2022-10-22T00:48:12;94606.31;;;15.65;75.86
75051;BME280;63628;47.656;11.310;2022-10-22T00:50:42;94612.44;;;15.66;75.80
75051;BME280;63628;47.656;11.310;2022-10-22T00:53:17;94619.13;;;15.63;75.78
75051;BME280;63628;47.656;11.310;2022-10-22T00:55:47;94621.00;;;15.68;75.71
75051;BME280;63628;47.656;11.310;2022-10-22T00:58:14;94613.53;;;15.65;75.65
75051;BME280;63628;47.656;11.310;2022-10-22T01:00:41;94626.06;;;15.69;75.13
75051;BME280;63628;47.656;11.310;2022-10-22T01:03:08;94622.06;;;15.72;74.92
75051;BME280;63628;47.656;11.310;2022-10-22T01:05:42;94624.19;;;15.70;75.63
75051;BME280;63628;47.656;11.310;2022-10-22T01:08:19;94625.00;;;15.70;75.06
75051;BME280;63628;47.656;11.310;2022-10-22T01:11:03;94634.59;;;15.71;75.18
75051;BME280;63628;47.656;11.310;2022-10-22T01:13:54;94632.72;;;15.62;75.61
75051;BME280;63628;47.656;11.310;2022-10-22T01:16:50;94637.13;;;14.95;80.95
75051;BME280;63628;47.656;11.310;2022-10-22T01:22:13;94646.53;;;15.48;76.14
75051;BME280;63628;47.656;11.310;2022-10-22T01:25:16;94654.00;;;15.57;76.19
75051;BME280;63628;47.656;11.310;2022-10-22T01:27:51;94650.28;;;15.42;76.55
75051;BME280;63628;47.656;11.310;2022-10-22T01:30:21;94657.75;;;15.55;76.01
75051;BME280;63628;47.656;11.310;2022-10-22T01:32:50;94655.59;;;15.42;76.70
75051;BME280;63628;47.656;11.310;2022-10-22T01:35:22;94668.69;;;15.54;75.75
75051;BME280;63628;47.656;11.310;2022-10-22T01:37:56;94670.16;;;14.89;79.26
75051;BME280;63628;47.656;11.310;2022-10-22T01:40:24;94670.38;;;14.77;80.16
75051;BME280;63628;47.656;11.310;2022-10-22T01:42:55;94661.44;;;15.19;78.05
75051;BME280;63628;47.656;11.310;2022-10-22T01:45:22;94645.97;;;14.38;82.41
75051;BME280;63628;47.656;11.310;2022-10-22T01:47:56;94637.53;;;13.67;85.73
75051;BME280;63628;47.656;11.310;2022-10-22T01:50:52;94636.56;;;13.46;86.98
75051;BME280;63628;47.656;11.310;2022-10-22T01:53:27;94648.97;;;13.36;88.35
75051;BME280;63628;47.656;11.310;2022-10-22T01:59:05;94638.88;;;14.59;81.02
75051;BME280;63628;47.656;11.310;2022-10-22T02:01:59;94651.28;;;14.96;78.97
75051;BME280;63628;47.656;11.310;2022-10-22T02:04:34;94654.53;;;15.18;77.58
75051;BME280;63628;47.656;11.310;2022-10-22T02:07:08;94662.53;;;15.28;77.25
75051;BME280;63628;47.656;11.310;2022-10-22T02:09:38;94674.25;;;15.32;76.93
75051;BME280;63628;47.656;11.310;2022-10-22T02:12:06;94677.22;;;15.36;76.50
75051;BME280;63628;47.656;11.310;2022-10-22T02:14:38;94682.53;;;15.36;76.52
75051;BME280;63628;47.656;11.310;2022-10-22T02:17:10;94691.34;;;15.36;76.41
75051;BME280;63628;47.656;11.310;2022-10-22T02:19:51;94702.53;;;15.38;76.70
75051;BME280;63628;47.656;11.310;2022-10-22T02:22:19;94710.28;;;15.40;76.37
75051;BME280;63628;47.656;11.310;2022-10-22T02:24:46;94716.41;;;15.40;76.64
75051;BME280;63628;47.656;11.310;2022-10-22T02:27:29;94718.03;;;15.41;75.91
75051;BME280;63628;47.656;11.310;2022-10-22T02:32:26;94738.81;;;15.34;76.59
75051;BME280;63628;47.656;11.310;2022-10-22T02:34:55;94750.03;;;15.41;75.93
75051;BME280;63628;47.656;11.310;2022-10-22T02:37:23;94760.94;;;15.40;75.71
75051;BME280;63628;47.656;11.310;2022-10-22T02:39:51;94768.16;;;15.44;75.91
75051;BME280;63628;47.656;11.310;2022-10-22T02:42:18;94800.69;;;15.36;76.43
75051;BME280;63628;47.656;11.310;2022-10-22T02:44:44;94793.75;;;14.78;80.06
75051;BME280;63628;47.656;11.310;2022-10-22T02:47:11;94781.78;;;14.11;84.14
75051;BME280;63628;47.656;11.310;2022-10-22T02:49:37;94794.78;;;13.76;86.19
75051;BME280;63628;47.656;11.310;2022-10-22T02:52:04;94774.63;;;14.44;81.86
75051;BME280;63628;47.656;11.310;2022-10-22T02:54:30;94768.56;;;14.21;83.51
75051;BME280;63628;47.656;11.310;2022-10-22T02:56:57;94779.13;;;13.79;85.51
75051;BME280;63628;47.656;11.310;2022-10-22T02:59:23;94785.09;;;14.55;79.74
75051;BME280;63628;47.656;11.310;2022-10-22T03:01:49;94768.75;;;14.89;77.67
75051;BME280;63628;47.656;11.310;2022-10-22T03:04:16;94774.25;;;14.72;79.52
75051;BME280;63628;47.656;11.310;2022-10-22T03:06:42;94764.59;;;15.13;77.67
75051;BME280;63628;47.656;11.310;2022-10-22T03:09:10;94765.38;;;15.09;77.63
75051;BME280;63628;47.656;11.310;2022-10-22T03:11:36;94773.44;;;15.19;76.19
75051;BME280;63628;47.656;11.310;2022-10-22T03:14:02;94772.09;;;15.16;76.19
75051;BME280;63628;47.656;11.310;2022-10-22T03:16:29;94770.50;;;15.20;76.59
75051;BME280;63628;47.656;11.310;2022-10-22T03:18:55;94780.91;;;15.27;76.75
75051;BME280;63628;47.656;11.310;2022-10-22T03:21:31;94780.41;;;15.30;76.61
75051;BME280;63628;47.656;11.310;2022-10-22T03:24:02;94786.25;;;15.27;76.33
75051;BME280;63628;47.656;11.310;2022-10-22T03:26:31;94779.84;;;15.23;76.55
75051;BME280;63628;47.656;11.310;2022-10-22T03:28:58;94785.44;;;15.27;76.66
75051;BME280;63628;47.656;11.310;2022-10-22T03:31:26;94793.72;;;15.30;76.58
75051;BME280;63628;47.656;11.310;2022-10-22T03:33:52;94807.06;;;15.30;76.17
75051;BME280;63628;47.656;11.310;2022-10-22T03:36:19;94795.59;;;15.30;76.35
75051;BME280;63628;47.656;11.310;2022-10-22T03:38:45;94804.13;;;15.32;76.37
75051;BME280;63628;47.656;11.310;2022-10-22T03:41:12;94807.84;;;15.31;76.18
75051;BME280;63628;47.656;11.310;2022-10-22T03:43:39;94797.22;;;15.36;76.30
75051;BME280;63628;47.656;11.310;2022-10-22T03:46:06;94799.88;;;15.31;76.31
75051;BME280;63628;47.656;11.310;2022-10-22T03:48:33;94803.59;;;15.30;76.47
75051;BME280;63628;47.656;11.310;2022-10-22T03:50:59;94807.34;;;15.34;75.96
75051;BME280;63628;47.656;11.310;2022-10-22T03:53:25;94802.53;;;15.36;75.53
75051;BME280;63628;47.656;11.310;2022-10-22T03:55:52;94796.94;;;15.32;75.92
75051;BME280;63628;47.656;11.310;2022-10-22T03:58:18;94804.91;;;15.27;75.77
75051;BME280;63628;47.656;11.310;2022-10-22T04:00:45;94805.19;;;15.26;76.15
75051;BME280;63628;47.656;11.310;2022-10-22T04:03:11;94802.78;;;15.24;76.30
75051;BME280;63628;47.656;11.310;2022-10-22T04:05:38;94797.19;;;15.26;76.87
75051;BME280;63628;47.656;11.310;2022-10-22T04:08:04;94787.84;;;15.23;76.54
75051;BME280;63628;47.656;11.310;2022-10-22T04:10:31;94791.84;;;15.26;76.62
75051;BME280;63628;47.656;11.310;2022-10-22T04:12:57;94791.03;;;15.25;76.61
75051;BME280;63628;47.656;11.310;2022-10-22T04:15:24;94783.03;;;15.20;75.79
75051;BME280;63628;47.656;11.310;2022-10-22T04:17:53;94782.97;;;13.93;81.64
75051;BME280;63628;47.656;11.310;2022-10-22T04:20:20;94776.94;;;14.77;78.42
75051;BME280;63628;47.656;11.310;2022-10-22T04:22:46;94774.72;;;15.11;76.86
75051;BME280;63628;47.656;11.310;2022-10-22T04:25:13;94767.03;;;15.20;76.33
75051;BME280;63628;47.656;11.310;2022-10-22T04:27:39;94755.06;;;15.28;76.16
75051;BME280;63628;47.656;11.310;2022-10-22T04:30:07;94746.25;;;15.22;76.30
75051;BME280;63628;47.656;11.310;2022-10-22T04:32:33;94753.44;;;15.21;76.69
75051;BME280;63628;47.656;11.310;2022-10-22T04:35:00;94754.50;;;15.20;76.25
75051;BME280;63628;47.656;11.310;2022-10-22T04:37:26;94743.28;;;15.18;76.26
75051;BME280;63628;47.656;11.310;2022-10-22T04:39:53;94749.69;;;15.17;76.80
75051;BME280;63628;47.656;11.310;2022-10-22T04:42:19;94744.88;;;15.14;76.40
75051;BME280;63628;47.656;11.310;2022-10-22T04:44:45;94736.38;;;15.17;76.52
75051;BME280;63628;47.656;11.310;2022-10-22T04:47:12;94748.88;;;15.17;77.00
75051;BME280;63628;47.656;11.310;2022-10-22T04:49:39;94740.91;;;15.17;76.11
75051;BME280;63628;47.656;11.310;2022-10-22T04:52:05;94740.38;;;15.20;76.36
75051;BME280;63628;47.656;11.310;2022-10-22T04:54:32;94746.50;;;15.20;76.14
75051;BME280;63628;47.656;11.310;2022-10-22T04:56:58;94740.88;;;15.07;75.73
75051;BME280;63628;47.656;11.310;2022-10-22T04:59:25;94757.16;;;15.15;76.83
75051;BME280;63628;47.656;11.310;2022-10-22T05:01:51;94752.84;;;14.52;77.25
75051;BME280;63628;47.656;11.310;2022-10-22T05:04:18;94755.38;;;14.79;77.72
75051;BME280;63628;47.656;11.310;2022-10-22T05:06:45;94758.34;;;14.40;77.38
75051;BME280;63628;47.656;11.310;2022-10-22T05:09:14;94755.59;;;14.67;78.40
75051;BME280;63628;47.656;11.310;2022-10-22T05:11:42;94754.97;;;15.02;76.26
75051;BME280;63628;47.656;11.310;2022-10-22T05:14:16;94753.41;;;15.11;76.58
75051;BME280;63628;47.656;11.310;2022-10-22T05:16:43;94750.50;;;15.18;75.58
75051;BME280;63628;47.656;11.310;2022-10-22T05:19:16;94743.81;;;15.15;75.37
75051;BME280;63628;47.656;11.310;2022-10-22T05:21:43;94740.59;;;15.08;75.76
75051;BME280;63628;47.656;11.310;2022-10-22T05:24:10;94745.16;;;15.13;76.17
75051;BME280;63628;47.656;11.310;2022-10-22T05:26:36;94732.34;;;15.15;75.17
75051;BME280;63628;47.656;11.310;2022-10-22T05:29:03;94733.13;;;15.05;76.12
75051;BME280;63628;47.656;11.310;2022-10-22T05:31:29;94727.31;;;13.87;79.22
75051;BME280;63628;47.656;11.310;2022-10-22T05:33:56;94734.09;;;14.89;77.38
75051;BME280;63628;47.656;11.310;2022-10-22T05:36:22;94735.00;;;15.05;76.86
75051;BME280;63628;47.656;11.310;2022-10-22T05:38:49;94735.81;;;15.10;76.31
75051;BME280;63628;47.656;11.310;2022-10-22T05:41:23;94740.06;;;15.11;75.75
75051;BME280;63628;47.656;11.310;2022-10-22T05:43:52;94739.53;;;15.09;76.46
75051;BME280;63628;47.656;11.310;2022-10-22T05:46:21;94739.25;;;15.06;76.70
75051;BME280;63628;47.656;11.310;2022-10-22T05:51:17;94750.47;;;15.08;76.40
75051;BME280;63628;47.656;11.310;2022-10-22T05:53:43;94753.13;;;15.08;76.00
75051;BME280;63628;47.656;11.310;2022-10-22T05:56:12;94768.84;;;15.04;76.39
75051;BME280;63628;47.656;11.310;2022-10-22T05:58:40;94767.75;;;15.00;76.16
75051;BME280;63628;47.656;11.310;2022-10-22T06:01:11;94760.31;;;15.07;75.93
75051;BME280;63628;47.656;11.310;2022-10-22T06:03:38;94767.00;;;15.10;76.11
75051;BME280;63628;47.656;11.310;2022-10-22T06:06:14;94771.53;;;15.09;76.30
75051;BME280;63628;47.656;11.310;2022-10-22T06:08:44;94780.84;;;15.07;76.10
75051;BME280;63628;47.656;11.310;2022-10-22T06:11:12;94783.78;;;15.05;75.10
75051;BME280;63628;47.656;11.310;2022-10-22T06:13:38;94786.00;;;14.76;77.09
75051;BME280;63628;47.656;11.310;2022-10-22T06:16:05;94795.72;;;14.98;76.46
75051;BME280;63628;47.656;11.310;2022-10-22T06:18:32;94812.06;;;13.73;80.03
75051;BME280;63628;47.656;11.310;2022-10-22T06:21:10;94819.13;;;14.21;76.56
75051;BME280;63628;47.656;11.310;2022-10-22T06:23:38;94829.94;;;14.74;76.81
75051;BME280;63628;47.656;11.310;2022-10-22T06:26:06;94817.44;;;14.74;77.17
75051;BME280;63628;47.656;11.310;2022-10-22T06:28:33;94823.34;;;14.86;76.48
75051;BME280;63628;47.656;11.310;2022-10-22T06:31:00;94832.09;;;14.77;76.60
75051;BME280;63628;47.656;11.310;2022-10-22T06:33:28;94843.38;;;14.94;76.95
75051;BME280;63628;47.656;11.310;2022-10-22T06:35:54;94847.03;;;14.78;75.90
75051;BME280;63628;47.656;11.310;2022-10-22T06:38:33;94846.09;;;14.99;75.81
75051;BME280;63628;47.656;11.310;2022-10-22T06:41:04;94865.13;;;13.85;79.76
75051;BME280;63628;47.656;11.310;2022-10-22T06:43:31;94865.75;;;14.51;77.87
75051;BME280;63628;47.656;11.310;2022-10-22T06:46:02;94876.97;;;12.95;83.53
75051;BME280;63628;47.656;11.310;2022-10-22T06:48:29;94868.75;;;14.59;78.04
75051;BME280;63628;47.656;11.310;2022-10-22T06:51:00;94884.63;;;14.81;77.35
75051;BME280;63628;47.656;11.310;2022-10-22T06:53:27;94876.66;;;14.86;76.75
75051;BME280;63628;47.656;11.310;2022-10-22T06:55:53;94875.34;;;14.89;75.58
75051;BME280;63628;47.656;11.310;2022-10-22T06:58:20;94883.59;;;14.87;76.51
75051;BME280;63628;47.656;11.310;2022-10-22T07:00:46;94885.75;;;14.90;76.88
75051;BME280;63628;47.656;11.310;2022-10-22T07:03:14;94888.94;;;14.93;76.48
75051;BME280;63628;47.656;11.310;2022-10-22T07:05:41;94885.44;;;14.87;76.30
75051;BME280;63628;47.656;11.310;2022-10-22T07:08:07;94881.28;;;14.96;75.94
75051;BME280;63628;47.656;11.310;2022-10-22T07:10:34;94887.09;;;14.93;76.40
75051;BME280;63628;47.656;11.310;2022-10-22T07:13:00;94885.53;;;14.97;75.92
75051;BME280;63628;47.656;11.310;2022-10-22T07:15:26;94894.59;;;14.96;75.77
75051;BME280;63628;47.656;11.310;2022-10-22T07:17:53;94893.78;;;14.96;76.32
75051;BME280;63628;47.656;11.310;2022-10-22T07:20:20;94898.56;;;14.94;76.48
75051;BME280;63628;47.656;11.310;2022-10-22T07:22:46;94892.75;;;14.97;75.78
75051;BME280;63628;47.656;11.310;2022-10-22T07:25:13;94890.56;;;14.94;75.76
75051;BME280;63628;47.656;11.310;2022-10-22T07:27:39;94896.16;;;14.92;76.21
75051;BME280;63628;47.656;11.310;2022-10-22T07:30:07;94900.63;;;14.86;76.71
75051;BME280;63628;47.656;11.310;2022-10-22T07:32:33;94891.88;;;14.91;76.45
75051;BME280;63628;47.656;11.310;2022-10-22T07:35:00;94892.75;;;14.65;75.53
75051;BME280;63628;47.656;11.310;2022-10-22T07:37:26;94905.94;;;14.81;76.60
75051;BME280;63628;47.656;11.310;2022-10-22T07:39:52;94908.34;;;14.83;76.42
75051;BME280;63628;47.656;11.310;2022-10-22T07:42:19;94907.28;;;14.84;76.33
75051;BME280;63628;47.656;11.310;2022-10-22T07:44:45;94912.91;;;14.87;76.37
75051;BME280;63628;47.656;11.310;2022-10-22T07:47:12;94913.44;;;14.89;76.57
75051;BME280;63628;47.656;11.310;2022-10-22T07:49:38;94917.41;;;14.82;77.02
75051;BME280;63628;47.656;11.310;2022-10-22T07:52:06;94930.78;;;14.92;76.25
75051;BME280;63628;47.656;11.310;2022-10-22T07:54:33;94924.91;;;14.90;76.33
75051;BME280;63628;47.656;11.310;2022-10-22T07:56:59;94931.00;;;14.85;76.66
75051;BME280;63628;47.656;11.310;2022-10-22T07:59:26;94937.66;;;14.51;78.42
75051;BME280;63628;47.656;11.310;2022-10-22T08:01:52;94945.66;;;14.83;76.54
75051;BME280;63628;47.656;11.310;2022-10-22T08:04:19;94937.84;;;13.95;79.56
75051;BME280;63628;47.656;11.310;2022-10-22T08:06:45;94950.84;;;14.41;78.21
75051;BME280;63628;47.656;11.310;2022-10-22T08:09:13;94949.28;;;13.14;83.90
75051;BME280;63628;47.656;11.310;2022-10-22T08:11:39;94965.03;;;14.24;78.92
75051;BME280;63628;47.656;11.310;2022-10-22T08:14:06;94958.97;;;14.51;77.46
75051;BME280;63628;47.656;11.310;2022-10-22T08:16:32;94973.19;;;13.69;81.87
75051;BME280;63628;47.656;11.310;2022-10-22T08:18:59;94971.94;;;14.42;78.48
75051;BME280;63628;47.656;11.310;2022-10-22T08:21:25;94977.25;;;14.69;77.07
75051;BME280;63628;47.656;11.310;2022-10-22T08:23:52;94977.59;;;14.78;76.57
75051;BME280;63628;47.656;11.310;2022-10-22T08:26:18;94981.59;;;14.80;76.50
75051;BME280;63628;47.656;11.310;2022-10-22T08:28:45;94987.47;;;14.82;76.06
75051;BME280;63628;47.656;11.310;2022-10-22T08:31:11;94986.41;;;14.83;75.65
75051;BME280;63628;47.656;11.310;2022-10-22T08:33:38;94987.97;;;14.79;76.32
75051;BME280;63628;47.656;11.310;2022-10-22T08:36:05;94986.63;;;14.77;76.52
75051;BME280;63628;47.656;11.310;2022-10-22T08:38:32;94985.19;;;14.64;77.05
75051;BME280;63628;47.656;11.310;2022-10-22T08:49:20;94965.34;;;13.41;84.97
75051;BME280;63628;47.656;11.310;2022-10-22T08:51:48;94968.69;;;14.40;78.49
75051;BME280;63628;47.656;11.310;2022-10-22T08:57:22;94979.09;;;14.69;76.41
75051;BME280;63628;47.656;11.310;2022-10-22T08:59:59;94968.00;;;14.50;78.00
75051;BME280;63628;47.656;11.310;2022-10-22T09:02:36;94972.47;;;14.71;76.56
75051;BME280;63628;47.656;11.310;2022-10-22T09:07:41;94975.41;;;14.75;76.33
75051;BME280;63628;47.656;11.310;2022-10-22T09:10:11;94977.28;;;14.74;76.44
75051;BME280;63628;47.656;11.310;2022-10-22T09:12:38;94983.66;;;14.73;76.61
75051;BME280;63628;47.656;11.310;2022-10-22T09:15:04;94991.38;;;14.70;76.91
75051;BME280;63628;47.656;11.310;2022-10-22T09:17:39;94997.53;;;14.75;76.93
75051;BME280;63628;47.656;11.310;2022-10-22T09:22:59;95001.53;;;14.02;80.95
75051;BME280;63628;47.656;11.310;2022-10-22T09:25:31;94998.63;;;14.47;78.83
75051;BME280;63628;47.656;11.310;2022-10-22T09:27:58;95007.31;;;14.65;77.41
75051;BME280;63628;47.656;11.310;2022-10-22T09:30:28;94997.75;;;14.69;76.63
75051;BME280;63628;47.656;11.310;2022-10-22T09:35:56;95001.41;;;13.70;83.44
75051;BME280;63628;47.656;11.310;2022-10-22T09:38:30;94994.59;;;14.45;78.28
75051;BME280;63628;47.656;11.310;2022-10-22T09:40:59;95004.59;;;14.59;77.75
75051;BME280;63628;47.656;11.310;2022-10-22T09:43:25;95015.53;;;14.63;77.17
75051;BME280;63628;47.656;11.310;2022-10-22T09:45:58;95018.75;;;14.65;77.40
75051;BME280;63628;47.656;11.310;2022-10-22T09:48:36;95014.00;;;14.67;77.31
75051;BME280;63628;47.656;11.310;2022-10-22T09:51:13;95017.19;;;14.69;77.55
75051;BME280;63628;47.656;11.310;2022-10-22T09:53:42;95016.59;;;14.62;77.20
75051;BME280;63628;47.656;11.310;2022-10-22T09:56:20;95008.34;;;14.64;77.60
75051;BME280;63628;47.656;11.310;2022-10-22T09:58:49;95014.78;;;14.68;77.05
75051;BME280;63628;47.656;11.310;2022-10-22T10:01:24;95011.63;;;14.71;76.89
75051;BME280;63628;47.656;11.310;2022-10-22T10:03:51;95008.88;;;14.17;81.67
75051;BME280;63628;47.656;11.310;2022-10-22T10:06:21;95003.75;;;14.54;77.46
75051;BME280;63628;47.656;11.310;2022-10-22T10:08:48;94994.50;;;14.62;77.27
75051;BME280;63628;47.656;11.310;2022-10-22T10:11:22;94997.75;;;14.69;76.86
75051;BME280;63628;47.656;11.310;2022-10-22T10:14:07;95000.78;;;15.09;82.04
75051;BME280;63628;47.656;11.310;2022-10-22T10:16:57;94998.03;;;15.36;82.96
75051;BME280;63628;47.656;11.310;2022-10-22T10:27:43;95009.75;;;15.67;76.43
75051;BME280;63628;47.656;11.310;2022-10-22T10:30:16;94999.31;;;15.61;77.56
75051;BME280;63628;47.656;11.310;2022-10-22T10:32:50;95002.25;;;15.64;77.74
75051;BME280;63628;47.656;11.310;2022-10-22T10:38:30;95008.34;;;15.22;76.57
75051;BME280;63628;47.656;11.310;2022-10-22T10:43:55;95010.31;;;15.00;76.45
75051;BME280;63628;47.656;11.310;2022-10-22T10:46:40;95005.72;;;15.28;78.20
75051;BME280;63628;47.656;11.310;2022-10-22T10:49:17;95005.31;;;15.09;76.60
75051;BME280;63628;47.656;11.310;2022-10-22T10:55:06;95002.19;;;15.59;81.20
75051;BME280;63628;47.656;11.310;2022-10-22T11:00:13;95002.66;;;16.66;73.75
75051;BME280;63628;47.656;11.310;2022-10-22T11:06:06;95000.31;;;17.10;73.79
75051;BME280;63628;47.656;11.310;2022-10-22T11:08:40;95006.69;;;16.68;74.98
75051;BME280;63628;47.656;11.310;2022-10-22T11:14:18;95003.47;;;17.83;69.83
75051;BME280;63628;47.656;11.310;2022-10-22T11:16:59;95012.91;;;16.16;72.66
75051;BME280;63628;47.656;11.310;2022-10-22T11:19:43;95004.66;;;15.66;74.57
75051;BME280;63628;47.656;11.310;2022-10-22T11:22:25;95002.97;;;17.40;71.35
75051;BME280;63628;47.656;11.310;2022-10-22T11:27:41;94999.72;;;15.52;74.81
75051;BME280;63628;47.656;11.310;2022-10-22T11:30:17;95008.34;;;15.22;75.96
75051;BME280;63628;47.656;11.310;2022-10-22T11:32:46;95016.03;;;15.19;76.53
75051;BME280;63628;47.656;11.310;2022-10-22T11:35:18;95014.34;;;15.45;75.66
75051;BME280;63628;47.656;11.310;2022-10-22T11:37:53;95014.69;;;15.16;76.55
75051;BME280;63628;47.656;11.310;2022-10-22T11:42:57;95017.41;;;15.21;76.69
75051;BME280;63628;47.656;11.310;2022-10-22T11:50:55;95014.78;;;16.16;73.45
75051;BME280;63628;47.656;11.310;2022-10-22T11:53:30;95007.72;;;16.62;72.91
75051;BME280;63628;47.656;11.310;2022-10-22T11:56:02;95009.38;;;17.39;72.61
75051;BME280;63628;47.656;11.310;2022-10-22T12:11:20;95017.38;;;16.01;77.65
75051;BME280;63628;47.656;11.310;2022-10-22T12:21:50;95015.25;;;16.03;74.51
75051;BME280;63628;47.656;11.310;2022-10-22T12:24:18;95009.31;;;15.85;75.66
75051;BME280;63628;47.656;11.310;2022-10-22T12:26:44;95013.91;;;16.00;74.25
75051;BME280;63628;47.656;11.310;2022-10-22T12:29:14;95004.50;;;15.88;75.51
75051;BME280;63628;47.656;11.310;2022-10-22T12:31:43;95007.16;;;15.82;74.00
75051;BME280;63628;47.656;11.310;2022-10-22T12:34:16;94999.16;;;15.88;76.55
75051;BME280;63628;47.656;11.310;2022-10-22T12:36:45;95001.09;;;16.02;72.58
75051;BME280;63628;47.656;11.310;2022-10-22T12:39:17;94995.13;;;16.47;71.78
75051;BME280;63628;47.656;11.310;2022-10-22T12:41:45;94988.94;;;16.32;72.14
75051;BME280;63628;47.656;11.310;2022-10-22T12:44:14;94990.06;;;16.51;65.16
75051;BME280;63628;47.656;11.310;2022-10-22T12:46:42;94987.06;;;16.32;68.11
75051;BME280;63628;47.656;11.310;2022-10-22T12:49:16;94986.16;;;16.06;70.73
75051;BME280;63628;47.656;11.310;2022-10-22T12:51:45;94984.69;;;16.46;66.33
75051;BME280;63628;47.656;11.310;2022-10-22T12:54:26;94989.03;;;16.67;65.38
75051;BME280;63628;47.656;11.310;2022-10-22T12:56:54;94991.09;;;16.35;66.07
75051;BME280;63628;47.656;11.310;2022-10-22T12:59:26;94982.53;;;16.28;66.50
75051;BME280;63628;47.656;11.310;2022-10-22T13:01:55;94987.34;;;16.41;64.91
75051;BME280;63628;47.656;11.310;2022-10-22T13:12:05;94978.28;;;16.52;64.95
75051;BME280;63628;47.656;11.310;2022-10-22T13:14:37;94975.81;;;16.25;71.60
75051;BME280;63628;47.656;11.310;2022-10-22T13:17:07;94980.31;;;16.09;69.03
75051;BME280;63628;47.656;11.310;2022-10-22T13:24:51;94974.28;;;16.55;64.88
75051;BME280;63628;47.656;11.310;2022-10-22T13:27:18;94966.28;;;16.49;65.73
75051;BME280;63628;47.656;11.310;2022-10-22T13:29:45;94968.69;;;16.51;64.57
75051;BME280;63628;47.656;11.310;2022-10-22T13:32:38;94969.47;;;16.52;64.04
75051;BME280;63628;47.656;11.310;2022-10-22T13:35:05;94970.25;;;16.32;73.76
75051;BME280;63628;47.656;11.310;2022-10-22T13:37:32;94964.38;;;16.35;67.49
75051;BME280;63628;47.656;11.310;2022-10-22T13:39:59;94959.19;;;16.08;77.08
75051;BME280;63628;47.656;11.310;2022-10-22T13:42:25;94961.19;;;16.53;65.87
75051;BME280;63628;47.656;11.310;2022-10-22T13:44:52;94963.78;;;16.23;75.95
75051;BME280;63628;47.656;11.310;2022-10-22T13:47:28;94972.56;;;16.08;78.29
75051;BME280;63628;47.656;11.310;2022-10-22T13:49:57;94967.06;;;16.45;66.56
75051;BME280;63628;47.656;11.310;2022-10-22T13:54:54;94970.44;;;16.15;79.14
75051;BME280;63628;47.656;11.310;2022-10-22T13:57:20;94972.31;;;16.14;79.05
75051;BME280;63628;47.656;11.310;2022-10-22T13:59:47;94970.69;;;16.08;77.97
75051;BME280;63628;47.656;11.310;2022-10-22T14:02:13;94969.91;;;16.18;78.87
75051;BME280;63628;47.656;11.310;2022-10-22T14:04:41;94969.13;;;16.23;79.79
75051;BME280;63628;47.656;11.310;2022-10-22T14:07:17;94962.69;;;16.18;79.42
75051;BME280;63628;47.656;11.310;2022-10-22T14:09:44;94963.50;;;16.14;79.08
75051;BME280;63628;47.656;11.310;2022-10-22T14:12:15;94973.94;;;16.21;80.18
75051;BME280;63628;47.656;11.310;2022-10-22T14:14:42;94967.25;;;16.23;80.25
75051;BME280;63628;47.656;11.310;2022-10-22T14:54:27;94993.66;;;16.09;77.83
75051;BME280;63628;47.656;11.310;2022-10-22T14:56:53;94996.06;;;16.11;77.77
75051;BME280;63628;47.656;11.310;2022-10-22T14:59:20;94999.00;;;16.09;77.79
75051;BME280;63628;47.656;11.310;2022-10-22T15:01:46;94997.94;;;16.10;77.22
75051;BME280;63628;47.656;11.310;2022-10-22T15:04:13;94997.94;;;16.10;77.02
75051;BME280;63628;47.656;11.310;2022-10-22T15:06:39;94993.38;;;16.11;76.63
75051;BME280;63628;47.656;11.310;2022-10-22T15:09:06;94995.81;;;16.12;76.77
75051;BME280;63628;47.656;11.310;2022-10-22T15:11:32;94994.72;;;16.08;76.64
75051;BME280;63628;47.656;11.310;2022-10-22T15:13:59;95004.34;;;16.09;76.48
75051;BME280;63628;47.656;11.310;2022-10-22T15:16:25;95006.72;;;16.06;76.59
75051;BME280;63628;47.656;11.310;2022-10-22T15:18:52;95003.00;;;16.07;76.82
75051;BME280;63628;47.656;11.310;2022-10-22T15:21:20;95009.66;;;16.04;76.45
75051;BME280;63628;47.656;11.310;2022-10-22T15:23:47;95006.44;;;16.02;76.61